Time;durP1;ratioP1;P1;durP2;ratioP2;P2;SDS_P1;SDS_P2;PMS_P1;PMS_P2;Temp;Humidity;BMP_temperature;BMP_pressure;BME280_temperature;BME280_humidity;BME280_pressure;Samples;Min_cycle;Max_cycle;Signal;HPM_P1;HPM_P2
2021/12/10 00:00:21;;;;;;;8.80;5.80;;;;;;;2.58;97.97;99223.63;687873;28;1143;-52
2021/12/10 00:00:56;;;;;;;9.45;6.18;;;;;;;2.62;97.56;99215.91;689713;28;1286;-54
2021/12/10 00:01:23;;;;;;;8.50;5.82;;;;;;;2.66;97.36;99211.59;690762;28;5065;-53
2021/12/10 00:02:02;;;;;;;8.60;5.53;;;;;;;2.62;97.10;99213.31;690531;28;3368;-53
2021/12/10 00:02:23;;;;;;;9.27;5.70;;;;;;;2.60;97.67;99212.44;690492;28;1307;-52
2021/12/10 00:02:46;;;;;;;10.43;5.93;;;;;;;2.77;97.14;99212.53;691825;28;1341;-54
2021/12/10 00:03:12;;;;;;;9.00;5.80;;;;;;;2.82;96.28;99213.38;690939;28;1218;-52
2021/12/10 00:03:47;;;;;;;8.20;5.72;;;;;;;2.90;95.95;99211.69;690862;28;1108;-54
2021/12/10 00:04:09;;;;;;;8.68;5.60;;;;;;;2.97;95.59;99204.81;690500;28;4687;-55
2021/12/10 00:04:34;;;;;;;8.38;5.70;;;;;;;2.89;96.18;99207.41;690230;28;3152;-52
2021/12/10 00:04:54;;;;;;;7.88;5.70;;;;;;;2.82;96.35;99209.94;687917;28;2138;-51
2021/12/10 00:05:19;;;;;;;8.63;6.13;;;;;;;2.75;96.53;99209.06;690916;28;1096;-53
2021/12/10 00:05:46;;;;;;;8.68;5.60;;;;;;;2.69;96.60;99204.75;690722;28;1047;-51
2021/12/10 00:06:11;;;;;;;8.68;5.78;;;;;;;2.66;96.71;99204.72;691299;28;1158;-51
2021/12/10 00:06:43;;;;;;;8.88;5.97;;;;;;;2.69;97.20;99204.75;688286;28;1060;-51
2021/12/10 00:07:12;;;;;;;9.38;5.80;;;;;;;2.84;96.85;99203.09;689855;28;5547;-52
2021/12/10 00:07:34;;;;;;;8.98;6.65;;;;;;;2.78;96.96;99201.31;690014;28;1338;-51
2021/12/10 00:07:56;;;;;;;9.25;7.60;;;;;;;2.85;96.62;99200.50;689585;28;1436;-54
2021/12/10 00:08:17;;;;;;;10.07;5.75;;;;;;;2.99;95.70;99203.13;691366;28;1253;-51
2021/12/10 00:08:40;;;;;;;10.15;6.13;;;;;;;2.95;95.22;99200.50;689928;28;1295;-51
2021/12/10 00:09:16;;;;;;;8.68;5.75;;;;;;;2.94;95.39;99193.66;688526;28;1223;-54
2021/12/10 00:09:43;;;;;;;9.23;5.70;;;;;;;2.93;95.30;99191.91;688025;28;1312;-54
2021/12/10 00:10:10;;;;;;;9.40;6.00;;;;;;;2.85;96.12;99191.88;687618;28;4391;-52
2021/12/10 00:10:34;;;;;;;7.90;5.80;;;;;;;2.78;96.98;99192.72;687435;28;1032;-53
2021/12/10 00:10:57;;;;;;;8.68;5.70;;;;;;;2.71;96.69;99187.56;689709;28;1426;-53
2021/12/10 00:11:33;;;;;;;10.35;5.82;;;;;;;2.69;96.78;99186.66;690187;28;1363;-54
2021/12/10 00:12:06;;;;;;;9.10;5.90;;;;;;;2.69;96.42;99191.84;690576;28;1025;-52
2021/12/10 00:12:37;;;;;;;9.23;5.57;;;;;;;2.82;96.47;99189.28;686734;28;1353;-52
2021/12/10 00:12:58;;;;;;;9.00;5.85;;;;;;;2.76;96.99;99184.13;686495;28;4358;-52
2021/12/10 00:13:20;;;;;;;8.75;5.93;;;;;;;2.70;96.81;99184.94;686637;28;1401;-53
2021/12/10 00:13:44;;;;;;;8.80;6.30;;;;;;;2.67;98.00;99187.53;688430;28;1292;-53
2021/12/10 00:14:06;;;;;;;8.95;6.07;;;;;;;2.61;97.75;99183.19;687674;28;1140;-51
2021/12/10 00:14:30;;;;;;;9.45;5.90;;;;;;;2.58;98.43;99185.78;690173;28;1335;-53
2021/12/10 00:14:51;;;;;;;8.30;5.80;;;;;;;2.55;98.33;99190.94;687582;28;1020;-55
2021/12/10 00:15:12;;;;;;;8.70;6.05;;;;;;;2.52;98.57;99181.47;688404;28;1218;-51
2021/12/10 00:15:36;;;;;;;8.77;6.50;;;;;;;2.53;98.95;99185.78;687449;28;3140;-54
2021/12/10 00:15:56;;;;;;;9.38;6.00;;;;;;;2.50;99.01;99180.56;686631;28;4427;-52
2021/12/10 00:16:18;;;;;;;11.95;6.50;;;;;;;2.49;99.05;99180.56;686688;28;1393;-54
2021/12/10 00:16:40;;;;;;;10.55;6.45;;;;;;;2.61;98.72;99184.94;688017;28;1024;-52
2021/12/10 00:17:04;;;;;;;9.80;6.47;;;;;;;2.73;97.70;99179.81;690131;28;1163;-56
2021/12/10 00:17:25;;;;;;;9.15;6.07;;;;;;;2.73;97.58;99180.66;687091;28;1341;-51
2021/12/10 00:17:45;;;;;;;9.00;5.75;;;;;;;2.80;96.81;99178.13;688022;28;1326;-51
2021/12/10 00:18:09;;;;;;;9.97;6.30;;;;;;;2.81;96.95;99174.66;685363;28;1418;-54
2021/12/10 00:18:34;;;;;;;9.50;6.05;;;;;;;2.76;96.37;99176.38;684121;28;3033;-55
2021/12/10 00:19:07;;;;;;;9.52;5.90;;;;;;;2.70;97.00;99177.19;685324;28;1112;-54
2021/12/10 00:19:39;;;;;;;9.00;6.22;;;;;;;2.65;97.75;99174.63;686975;28;4847;-52
2021/12/10 00:20:01;;;;;;;8.77;6.00;;;;;;;2.60;97.28;99168.56;685835;28;1244;-55
2021/12/10 00:20:25;;;;;;;9.27;6.20;;;;;;;2.72;97.18;99168.63;687617;28;1127;-52
2021/12/10 00:20:48;;;;;;;8.95;6.32;;;;;;;2.71;97.00;99169.50;687440;28;2899;-51
2021/12/10 00:21:09;;;;;;;10.15;6.32;;;;;;;2.68;97.26;99168.59;686656;28;1914;-51
2021/12/10 00:21:29;;;;;;;9.98;5.72;;;;;;;2.63;97.05;99168.59;687486;28;3386;-55
2021/12/10 00:21:51;;;;;;;9.97;6.00;;;;;;;2.77;97.71;99172.94;685092;28;1453;-54
2021/12/10 00:22:17;;;;;;;10.23;5.75;;;;;;;2.87;96.42;99162.63;686903;28;4432;-55
2021/12/10 00:22:46;;;;;;;8.65;5.50;;;;;;;2.99;95.82;99166.97;688546;28;1082;-52
2021/12/10 00:23:11;;;;;;;8.65;5.82;;;;;;;2.89;95.53;99160.06;686288;28;1091;-53
2021/12/10 00:23:32;;;;;;;9.93;5.82;;;;;;;2.82;96.14;99166.06;688550;28;1179;-52
2021/12/10 00:23:55;;;;;;;9.50;5.73;;;;;;;2.82;95.67;99161.75;689603;28;1163;-52
2021/12/10 00:24:16;;;;;;;9.10;5.85;;;;;;;2.80;95.63;99171.22;689969;28;3437;-50
2021/12/10 00:24:39;;;;;;;8.57;5.82;;;;;;;2.77;96.52;99168.66;689868;28;1309;-54
2021/12/10 00:24:59;;;;;;;9.52;5.80;;;;;;;2.75;96.19;99167.75;688515;28;4432;-51
2021/12/10 00:25:24;;;;;;;9.23;5.82;;;;;;;2.76;96.42;99159.16;688707;28;1249;-51
2021/12/10 00:25:50;;;;;;;9.13;5.97;;;;;;;2.73;96.25;99159.16;690717;28;1243;-52
2021/12/10 00:26:10;;;;;;;9.15;5.82;;;;;;;2.68;96.65;99161.72;690278;28;1095;-53
2021/12/10 00:26:30;;;;;;;8.80;5.78;;;;;;;2.65;97.00;99166.03;687036;28;1068;-53
2021/12/10 00:26:51;;;;;;;9.80;5.70;;;;;;;2.62;97.06;99158.28;686975;28;3296;-54
2021/12/10 00:27:12;;;;;;;9.23;5.78;;;;;;;2.68;97.79;99160.88;686926;28;3339;-54
2021/12/10 00:27:34;;;;;;;9.82;5.93;;;;;;;2.61;98.07;99154.81;682685;28;1468;-53
2021/12/10 00:27:54;;;;;;;9.30;6.20;;;;;;;2.69;97.18;99155.72;685061;28;1143;-52
2021/12/10 00:28:28;;;;;;;9.43;5.97;;;;;;;2.66;97.18;99158.28;685194;28;4415;-52
2021/12/10 00:28:50;;;;;;;9.25;6.03;;;;;;;2.68;97.49;99151.41;686911;28;1174;-53
2021/12/10 00:29:12;;;;;;;8.73;5.95;;;;;;;2.79;96.90;99158.31;686824;28;1065;-53
2021/12/10 00:29:34;;;;;;;9.52;5.70;;;;;;;2.86;95.86;99147.16;688643;28;1156;-54
2021/12/10 00:30:08;;;;;;;9.27;5.82;;;;;;;2.99;95.17;99146.31;689721;28;3354;-51
2021/12/10 00:30:33;;;;;;;9.20;5.40;;;;;;;2.98;95.29;99148.91;690204;28;1198;-50
2021/12/10 00:31:07;;;;;;;7.97;5.40;;;;;;;2.99;95.10;99143.75;690178;28;1040;-54
2021/12/10 00:32:29;;;;;;;7.90;5.47;;;;;;;3.06;94.26;99132.56;690388;28;1293;-54
2021/12/10 00:33:12;;;;;;;8.75;5.30;;;;;;;3.01;94.97;99134.25;688433;28;3378;-53
2021/12/10 00:33:38;;;;;;;8.18;5.78;;;;;;;3.02;94.65;99138.56;686498;28;1396;-52
2021/12/10 00:34:21;;;;;;;7.85;5.28;;;;;;;3.04;94.67;99138.56;685144;28;4627;-53
2021/12/10 00:34:46;;;;;;;8.90;5.65;;;;;;;3.04;94.25;99134.25;685101;28;1461;-53
2021/12/10 00:35:35;;;;;;;8.48;5.40;;;;;;;3.02;94.19;99136.00;687728;28;1042;-54
2021/12/10 00:35:56;;;;;;;8.15;5.68;;;;;;;3.02;94.82;99129.97;688199;28;1440;-55
2021/12/10 00:36:16;;;;;;;8.05;5.35;;;;;;;3.09;94.59;99125.66;692426;28;1158;-53
2021/12/10 00:36:38;;;;;;;8.83;5.30;;;;;;;3.13;93.88;99137.72;692261;28;1120;-50
2021/12/10 00:37:04;;;;;;;7.90;5.50;;;;;;;3.03;93.87;99126.50;691057;28;4439;-52
2021/12/10 00:37:25;;;;;;;8.63;5.63;;;;;;;3.12;93.46;99130.84;691522;28;1087;-52
2021/12/10 00:37:46;;;;;;;7.90;5.32;;;;;;;3.17;93.57;99124.81;691415;28;1056;-53
2021/12/10 00:38:08;;;;;;;7.53;5.38;;;;;;;3.21;93.05;99121.38;688292;28;1223;-50
2021/12/10 00:38:29;;;;;;;8.15;5.55;;;;;;;3.13;93.14;99123.09;688203;28;3260;-50
2021/12/10 00:38:51;;;;;;;8.73;5.50;;;;;;;3.05;93.75;99124.81;689769;28;958;-54
2021/12/10 00:39:16;;;;;;;7.90;5.30;;;;;;;2.97;93.99;99127.38;690236;28;3755;-53
2021/12/10 00:39:41;;;;;;;8.23;5.57;;;;;;;2.86;96.34;99129.94;688780;28;1000;-50
2021/12/10 00:40:05;;;;;;;7.97;5.72;;;;;;;2.87;96.07;99120.50;689009;28;4680;-52
2021/12/10 00:40:27;;;;;;;9.00;5.75;;;;;;;2.81;95.58;99125.63;689582;28;1111;-53
2021/12/10 00:40:48;;;;;;;8.50;5.65;;;;;;;2.76;96.03;99122.19;690245;28;1257;-52
2021/12/10 00:41:10;;;;;;;7.93;5.53;;;;;;;2.75;96.34;99120.47;686998;28;3457;-55
2021/12/10 00:41:31;;;;;;;8.13;5.40;;;;;;;2.84;95.29;99120.50;684850;28;3666;-52
2021/12/10 00:41:52;;;;;;;7.68;5.28;;;;;;;2.80;96.18;99123.94;687365;28;1227;-53
2021/12/10 00:42:17;;;;;;;8.48;5.60;;;;;;;2.90;95.33;99112.75;686848;28;1201;-51
2021/12/10 00:42:37;;;;;;;7.60;5.50;;;;;;;2.88;95.57;99111.88;684704;28;1373;-55
2021/12/10 00:42:58;;;;;;;8.25;5.80;;;;;;;2.77;95.06;99119.63;685576;28;4321;-53
2021/12/10 00:43:19;;;;;;;9.00;5.60;;;;;;;2.81;95.64;99110.13;684702;28;1155;-52
2021/12/10 00:43:40;;;;;;;8.90;5.30;;;;;;;2.79;95.43;99119.59;683658;28;1280;-52
2021/12/10 00:44:01;;;;;;;11.13;5.57;;;;;;;2.90;94.77;99117.91;683890;28;3125;-52
2021/12/10 00:44:22;;;;;;;11.05;5.95;;;;;;;2.90;94.47;99117.91;684606;28;1129;-54
2021/12/10 00:44:43;;;;;;;8.80;5.68;;;;;;;2.86;94.64;99111.00;686858;28;1475;-52
2021/12/10 00:45:07;;;;;;;7.50;5.22;;;;;;;2.90;94.29;99111.00;687529;28;1128;-52
2021/12/10 00:45:28;;;;;;;8.27;5.40;;;;;;;2.89;94.05;99111.00;689156;28;1235;-52
2021/12/10 00:45:49;;;;;;;8.35;5.20;;;;;;;2.84;94.55;99110.16;689806;28;1278;-53
2021/12/10 00:46:09;;;;;;;7.80;5.25;;;;;;;2.80;95.00;99109.28;689173;28;4551;-52
2021/12/10 00:46:30;;;;;;;7.87;5.43;;;;;;;2.75;94.94;99117.88;689789;28;1552;-51
2021/12/10 00:46:51;;;;;;;7.83;5.33;;;;;;;2.81;95.55;99111.03;690719;28;3228;-52
2021/12/10 00:47:12;;;;;;;7.07;5.30;;;;;;;2.77;95.61;99114.44;688738;28;1158;-55
2021/12/10 00:47:33;;;;;;;8.80;5.67;;;;;;;2.75;95.68;99110.13;690088;28;939;-52
2021/12/10 00:47:53;;;;;;;8.55;5.60;;;;;;;2.73;95.61;99112.72;689119;28;1186;-53
2021/12/10 00:48:14;;;;;;;7.65;5.45;;;;;;;2.69;95.31;99116.16;688902;28;1163;-54
2021/12/10 00:48:34;;;;;;;8.25;5.50;;;;;;;2.64;95.99;99117.84;689106;28;896;-52
2021/12/10 00:48:55;;;;;;;8.20;5.70;;;;;;;2.69;96.53;99116.16;690830;28;1123;-55
2021/12/10 00:49:16;;;;;;;9.20;6.32;;;;;;;2.66;96.41;99111.84;689949;28;4568;-53
2021/12/10 00:49:36;;;;;;;9.13;6.20;;;;;;;2.64;96.22;99115.28;689220;28;3091;-52
2021/12/10 00:49:57;;;;;;;9.13;5.47;;;;;;;2.66;96.46;99114.41;687477;28;3479;-52
2021/12/10 00:50:27;;;;;;;8.88;5.47;;;;;;;2.68;95.76;99112.69;686334;28;1247;-52
2021/12/10 00:50:51;;;;;;;9.27;5.80;;;;;;;2.61;95.95;99117.84;687455;28;1331;-53
2021/12/10 00:51:12;;;;;;;8.85;5.50;;;;;;;2.65;96.68;99112.69;683545;28;1112;-53
2021/12/10 00:51:34;;;;;;;8.55;5.57;;;;;;;2.69;95.82;99114.41;683704;28;1054;-52
2021/12/10 00:51:54;;;;;;;8.73;5.57;;;;;;;2.79;95.70;99117.03;685967;28;1211;-50
2021/12/10 00:52:16;;;;;;;8.55;5.70;;;;;;;2.81;95.03;99107.56;686594;28;4451;-51
2021/12/10 00:52:36;;;;;;;8.35;5.35;;;;;;;2.75;95.23;99117.88;685195;28;3223;-55
2021/12/10 00:52:57;;;;;;;7.93;5.47;;;;;;;2.68;95.34;99112.69;686903;28;1448;-53
2021/12/10 00:53:18;;;;;;;7.80;5.70;;;;;;;2.62;96.29;99112.69;684308;28;1221;-52
2021/12/10 00:53:40;;;;;;;8.70;5.80;;;;;;;2.68;96.46;99109.25;684709;28;1130;-50
2021/12/10 00:54:01;;;;;;;8.77;5.40;;;;;;;2.68;96.29;99112.69;683840;28;1164;-52
2021/12/10 00:54:21;;;;;;;7.88;5.30;;;;;;;2.67;96.37;99103.25;684508;28;1179;-50
2021/12/10 00:54:43;;;;;;;8.17;5.90;;;;;;;2.68;95.96;99110.09;684762;28;1266;-53
2021/12/10 00:55:05;;;;;;;10.02;6.65;;;;;;;2.66;95.97;99106.69;685156;28;4765;-51
2021/12/10 00:55:26;;;;;;;7.95;5.55;;;;;;;2.83;95.50;99111.03;689140;28;1134;-51
2021/12/10 00:55:47;;;;;;;7.78;5.20;;;;;;;2.95;94.36;99108.44;688627;28;3112;-54
2021/12/10 00:56:09;;;;;;;8.77;5.43;;;;;;;2.94;94.70;99109.31;689453;28;1246;-51
2021/12/10 00:56:29;;;;;;;9.43;5.40;;;;;;;2.90;94.33;99103.25;688964;28;1360;-52
2021/12/10 00:56:50;;;;;;;8.60;5.50;;;;;;;2.85;94.75;99112.75;690060;28;1075;-52
2021/12/10 00:57:11;;;;;;;8.68;5.32;;;;;;;2.79;95.02;99106.72;690619;28;1120;-51
2021/12/10 00:57:32;;;;;;;7.38;5.32;;;;;;;2.72;95.40;99111.00;689904;28;1251;-55
2021/12/10 00:57:55;;;;;;;7.55;5.60;;;;;;;2.68;95.81;99109.25;690762;28;1079;-53
2021/12/10 00:58:16;;;;;;;9.05;5.68;;;;;;;2.66;95.85;99104.09;688796;28;4519;-52
2021/12/10 00:58:37;;;;;;;8.50;5.40;;;;;;;2.63;95.91;99111.84;685893;28;1377;-56
2021/12/10 00:58:58;;;;;;;7.78;5.47;;;;;;;2.59;96.30;99104.94;687314;28;1068;-55
2021/12/10 00:59:20;;;;;;;8.18;5.70;;;;;;;2.56;96.50;99107.50;683445;28;1196;-55
2021/12/10 00:59:43;;;;;;;8.20;5.50;;;;;;;2.52;96.56;99104.06;681966;28;1208;-52
2021/12/10 01:00:12;;;;;;;7.85;5.68;;;;;;;2.48;97.10;99107.50;680965;28;1250;-55
2021/12/10 01:00:41;;;;;;;7.40;5.32;;;;;;;2.50;96.72;99117.81;680149;28;1021;-51
2021/12/10 01:01:08;;;;;;;9.65;5.60;;;;;;;2.59;96.10;99106.66;681305;28;4428;-55
2021/12/10 01:01:31;;;;;;;8.05;5.57;;;;;;;2.68;95.51;99109.25;685121;28;1575;-51
2021/12/10 01:01:52;;;;;;;7.32;5.00;;;;;;;2.66;94.98;99101.53;690248;28;1524;-53
2021/12/10 01:02:15;;;;;;;7.30;5.00;;;;;;;2.69;95.33;99103.25;689359;28;1076;-53
2021/12/10 01:02:36;;;;;;;8.13;5.28;;;;;;;2.72;94.85;99106.69;688760;28;1242;-55
2021/12/10 01:02:57;;;;;;;7.55;5.30;;;;;;;2.69;95.34;99100.66;689102;28;1171;-55
2021/12/10 01:03:23;;;;;;;7.28;5.20;;;;;;;2.61;96.56;99103.22;688033;28;1211;-55
2021/12/10 01:03:50;;;;;;;7.90;5.38;;;;;;;2.73;95.54;99105.81;688915;28;3161;-52
2021/12/10 01:04:21;;;;;;;9.35;5.75;;;;;;;2.69;96.07;99098.94;685550;28;4589;-51
2021/12/10 01:04:46;;;;;;;7.28;4.93;;;;;;;2.71;95.47;99097.25;687010;28;1665;-53
2021/12/10 01:05:08;;;;;;;7.60;4.95;;;;;;;2.72;96.19;99104.09;686532;28;1298;-52
2021/12/10 01:05:30;;;;;;;7.85;5.30;;;;;;;2.65;96.14;99099.78;686691;28;1397;-53
2021/12/10 01:05:54;;;;;;;8.20;5.35;;;;;;;2.60;95.98;99101.50;686982;28;1096;-52
2021/12/10 01:06:17;;;;;;;8.70;5.78;;;;;;;2.58;96.14;99108.38;688180;28;1077;-54
2021/12/10 01:06:40;;;;;;;7.93;5.45;;;;;;;2.54;96.74;99102.34;684328;28;3155;-52
2021/12/10 01:07:06;;;;;;;8.25;5.60;;;;;;;2.52;96.12;99103.19;685615;28;4424;-54
2021/12/10 01:07:31;;;;;;;7.60;5.20;;;;;;;2.49;96.20;99109.22;686462;28;1195;-52
2021/12/10 01:07:52;;;;;;;8.23;5.47;;;;;;;2.47;96.08;99110.91;686159;28;1942;-53
2021/12/10 01:08:12;;;;;;;7.87;5.60;;;;;;;2.47;96.04;99115.22;686683;28;1154;-54
2021/12/10 01:08:34;;;;;;;8.57;5.57;;;;;;;2.46;96.86;99110.91;688719;28;1123;-53
2021/12/10 01:08:59;;;;;;;7.82;5.25;;;;;;;2.45;97.05;99104.03;688854;28;1100;-55
2021/12/10 01:09:25;;;;;;;7.82;5.25;;;;;;;2.44;96.79;99103.19;688477;28;1227;-52
2021/12/10 01:09:49;;;;;;;7.72;4.97;;;;;;;2.45;96.79;99102.34;689922;28;3742;-51
2021/12/10 01:10:20;;;;;;;7.82;5.50;;;;;;;2.61;95.56;99098.06;688866;28;4579;-52
2021/12/10 01:10:47;;;;;;;8.43;5.30;;;;;;;2.67;95.84;99099.78;688946;28;1141;-54
2021/12/10 01:11:20;;;;;;;8.88;5.22;;;;;;;2.65;96.24;99109.25;688829;28;1226;-51
2021/12/10 01:11:49;;;;;;;7.82;5.47;;;;;;;2.59;95.93;99099.78;689318;28;923;-51
2021/12/10 01:12:17;;;;;;;8.05;5.20;;;;;;;2.54;96.50;99099.75;689593;28;982;-53
2021/12/10 01:12:42;;;;;;;7.68;5.57;;;;;;;2.56;96.34;99099.75;688641;28;3617;-53
2021/12/10 01:13:07;;;;;;;7.32;5.40;;;;;;;2.62;95.71;99094.63;689956;28;4323;-51
2021/12/10 01:13:32;;;;;;;7.55;5.20;;;;;;;2.61;96.44;99098.06;690124;28;1088;-54
2021/12/10 01:13:57;;;;;;;8.75;5.57;;;;;;;2.59;95.76;99093.75;689875;28;1028;-54
2021/12/10 01:14:35;;;;;;;8.05;5.32;;;;;;;2.64;95.83;99092.06;689266;28;1357;-53
2021/12/10 01:25:39;;;;;;;7.32;5.13;;;;;;;2.71;94.42;99074.00;688708;28;5006;-52
2021/12/10 01:26:25;;;;;;;7.38;4.97;;;;;;;2.80;94.99;99062.84;689416;28;1277;-51
2021/12/10 01:27:25;;;;;;;7.22;5.15;;;;;;;2.79;94.44;99055.09;690406;28;1175;-52
2021/12/10 01:27:46;;;;;;;6.57;4.63;;;;;;;2.79;94.14;99055.94;686252;28;1162;-51
2021/12/10 01:28:08;;;;;;;7.33;4.80;;;;;;;2.76;94.35;99053.38;685666;28;4580;-51
2021/12/10 01:28:28;;;;;;;8.60;5.20;;;;;;;2.71;94.54;99053.38;686667;28;1203;-52
2021/12/10 01:28:56;;;;;;;7.53;4.78;;;;;;;2.79;93.97;99057.66;688461;28;1181;-54
2021/12/10 01:29:24;;;;;;;7.30;4.53;;;;;;;2.79;93.91;99055.09;689416;28;3149;-51
2021/12/10 01:29:46;;;;;;;6.35;4.78;;;;;;;2.77;93.78;99054.22;691783;28;1082;-55
2021/12/10 01:30:15;;;;;;;7.38;5.10;;;;;;;2.74;94.00;99060.22;692622;28;1067;-54
2021/12/10 01:30:39;;;;;;;8.85;4.97;;;;;;;2.64;94.15;99059.34;691658;28;1291;-51
2021/12/10 01:30:59;;;;;;;7.07;4.80;;;;;;;2.66;94.20;99049.91;691351;28;4429;-54
2021/12/10 01:31:20;;;;;;;6.90;4.70;;;;;;;2.61;94.19;99056.78;689687;28;1056;-54
2021/12/10 01:31:42;;;;;;;7.20;4.95;;;;;;;2.56;94.48;99053.31;688066;28;1107;-51
2021/12/10 01:32:07;;;;;;;7.40;4.80;;;;;;;2.54;95.28;99047.31;688849;28;1874;-52
2021/12/10 01:32:32;;;;;;;7.15;4.95;;;;;;;2.41;96.51;99056.75;688870;28;3393;-55
2021/12/10 01:32:57;;;;;;;8.20;5.30;;;;;;;2.35;95.96;99055.03;689405;28;1178;-56
2021/12/10 01:33:18;;;;;;;8.32;5.18;;;;;;;2.45;95.93;99045.59;688402;28;1100;-52
2021/12/10 01:33:40;;;;;;;8.88;5.25;;;;;;;2.45;95.52;99050.75;689537;28;1103;-51
2021/12/10 01:34:02;;;;;;;8.70;4.90;;;;;;;2.47;95.80;99048.16;689584;28;4350;-56
2021/12/10 01:34:22;;;;;;;7.63;4.90;;;;;;;2.44;95.33;99051.59;688631;28;1237;-52
2021/12/10 01:34:43;;;;;;;6.97;4.88;;;;;;;2.38;95.95;99054.13;690749;28;1262;-52
2021/12/10 01:35:07;;;;;;;7.38;5.07;;;;;;;2.34;96.04;99049.84;689682;28;3117;-55
2021/12/10 01:35:31;;;;;;;7.25;5.05;;;;;;;2.29;96.66;99051.56;689204;28;1547;-53
2021/12/10 01:35:55;;;;;;;7.30;5.22;;;;;;;2.24;96.98;99051.53;689206;28;1567;-54
2021/12/10 01:36:16;;;;;;;8.43;5.53;;;;;;;2.22;96.86;99051.53;689796;28;1214;-54
2021/12/10 01:36:38;;;;;;;7.63;5.10;;;;;;;2.19;97.78;99048.94;690450;28;1218;-51
2021/12/10 01:36:59;;;;;;;8.88;5.30;;;;;;;2.16;98.57;99060.94;689546;28;4434;-55
2021/12/10 01:37:19;;;;;;;7.72;5.03;;;;;;;2.11;98.56;99054.94;689052;28;1080;-52
2021/12/10 01:37:40;;;;;;;7.82;5.07;;;;;;;2.15;98.25;99057.53;689284;28;1130;-53
2021/12/10 01:38:04;;;;;;;9.35;5.45;;;;;;;2.12;97.93;99054.94;689480;28;3550;-54
2021/12/10 01:38:25;;;;;;;8.07;5.55;;;;;;;2.11;97.47;99053.22;688708;28;1202;-54
2021/12/10 01:38:48;;;;;;;8.25;5.35;;;;;;;2.08;98.21;99049.75;689318;28;1207;-55
2021/12/10 01:39:13;;;;;;;8.18;5.13;;;;;;;2.04;98.32;99049.75;687119;28;2067;-53
2021/12/10 01:39:37;;;;;;;8.57;5.20;;;;;;;2.19;97.63;99048.09;685379;28;951;-53
2021/12/10 01:39:58;;;;;;;10.13;5.15;;;;;;;2.26;96.90;99052.41;685275;28;4450;-55
2021/12/10 01:40:21;;;;;;;10.10;5.20;;;;;;;2.28;96.69;99044.66;686799;28;1301;-55
2021/12/10 01:40:48;;;;;;;9.40;5.03;;;;;;;2.44;95.96;99038.69;686401;28;3145;-51
2021/12/10 01:41:13;;;;;;;7.57;5.03;;;;;;;2.56;95.41;99045.59;689885;28;1424;-51
2021/12/10 01:41:38;;;;;;;7.32;4.68;;;;;;;2.55;95.35;99043.88;687871;28;1345;-51
2021/12/10 01:42:13;;;;;;;8.00;5.05;;;;;;;2.58;95.10;99041.31;690456;28;984;-51
2021/12/10 01:42:47;;;;;;;7.72;4.82;;;;;;;2.62;94.69;99037.88;688876;28;1150;-54
2021/12/10 01:43:12;;;;;;;9.73;5.47;;;;;;;2.51;94.76;99034.41;688484;28;4571;-53
2021/12/10 01:43:35;;;;;;;9.10;5.25;;;;;;;2.54;95.27;99034.41;689017;28;3319;-54
2021/12/10 01:44:01;;;;;;;7.32;5.00;;;;;;;2.53;94.92;99037.84;689795;28;1126;-51
2021/12/10 01:44:32;;;;;;;8.07;5.15;;;;;;;2.44;95.80;99037.81;689504;28;1430;-55
2021/12/10 01:44:57;;;;;;;9.50;5.05;;;;;;;2.48;95.30;99039.53;689369;28;1040;-55
2021/12/10 01:45:26;;;;;;;8.50;5.20;;;;;;;2.55;94.64;99036.16;688960;28;1349;-51
2021/12/10 01:45:48;;;;;;;8.23;5.10;;;;;;;2.47;94.97;99030.09;688303;28;929;-53
2021/12/10 01:46:18;;;;;;;8.07;5.28;;;;;;;2.41;95.57;99030.09;688647;28;5461;-56
2021/12/10 01:46:40;;;;;;;8.90;5.43;;;;;;;2.50;95.02;99027.53;686864;28;2016;-54
2021/12/10 01:47:05;;;;;;;8.63;5.28;;;;;;;2.46;94.95;99024.06;686962;28;1603;-52
2021/12/10 01:47:30;;;;;;;8.40;5.00;;;;;;;2.42;95.02;99027.50;686420;28;1235;-53
2021/12/10 01:48:00;;;;;;;7.95;5.18;;;;;;;2.43;95.19;99018.06;687052;28;1045;-52
2021/12/10 01:48:35;;;;;;;8.63;4.90;;;;;;;2.35;95.61;99023.19;688892;28;1104;-51
2021/12/10 01:49:02;;;;;;;7.95;5.10;;;;;;;2.32;95.40;99024.03;689591;28;1112;-50
2021/12/10 01:49:23;;;;;;;9.40;5.40;;;;;;;2.27;95.67;99019.72;689372;28;6805;-51
2021/12/10 01:49:43;;;;;;;9.27;5.13;;;;;;;2.36;95.09;99020.63;688884;28;1150;-53
2021/12/10 01:50:06;;;;;;;8.90;5.13;;;;;;;2.45;95.24;99021.50;686521;28;1233;-53
2021/12/10 01:50:28;;;;;;;9.07;5.40;;;;;;;2.49;94.94;99010.31;686157;28;1251;-54
2021/12/10 01:50:49;;;;;;;8.35;5.25;;;;;;;2.46;95.17;99016.34;685923;28;1107;-64
2021/12/10 01:51:13;;;;;;;9.15;4.97;;;;;;;2.41;94.75;99012.03;686618;28;953;-55
2021/12/10 01:51:36;;;;;;;9.43;5.47;;;;;;;2.36;95.20;99010.28;685874;28;985;-56
2021/12/10 01:51:57;;;;;;;9.38;5.40;;;;;;;2.32;95.63;99010.31;687007;28;5474;-54
2021/12/10 01:52:19;;;;;;;10.13;5.40;;;;;;;2.23;96.09;99013.72;688859;28;2242;-53
2021/12/10 01:52:40;;;;;;;8.65;4.93;;;;;;;2.26;96.24;99011.16;689358;28;1148;-55
2021/12/10 01:53:05;;;;;;;8.27;4.97;;;;;;;2.30;95.71;99007.72;687989;28;1146;-54
2021/12/10 01:53:30;;;;;;;8.38;5.18;;;;;;;2.33;95.21;99007.72;688963;28;1114;-51
2021/12/10 01:54:05;;;;;;;7.28;4.90;;;;;;;2.34;95.33;99012.03;689105;28;1110;-53
2021/12/10 01:54:34;;;;;;;9.10;5.20;;;;;;;2.28;95.36;99009.41;689550;28;1039;-54
2021/12/10 01:54:58;;;;;;;7.72;5.18;;;;;;;2.31;95.35;99012.03;688974;28;3558;-51
2021/12/10 01:55:20;;;;;;;9.18;5.50;;;;;;;2.28;95.09;99006.84;688789;28;4767;-55
2021/12/10 01:55:44;;;;;;;8.70;4.97;;;;;;;2.24;95.51;99001.69;689204;28;1336;-53
2021/12/10 01:56:10;;;;;;;8.07;5.00;;;;;;;2.18;95.51;99000.81;690202;28;1906;-55
2021/12/10 01:56:33;;;;;;;8.90;5.60;;;;;;;2.16;96.70;99006.81;687628;28;1169;-51
2021/12/10 01:56:56;;;;;;;8.88;5.07;;;;;;;2.21;96.07;98997.38;689563;28;1154;-53
2021/12/10 01:57:19;;;;;;;8.43;5.47;;;;;;;2.23;95.93;99008.56;689454;28;1284;-54
2021/12/10 01:57:40;;;;;;;9.20;5.40;;;;;;;2.21;96.37;99005.97;689500;28;1840;-52
2021/12/10 01:58:00;;;;;;;8.60;5.10;;;;;;;2.22;95.79;98999.09;688286;28;4665;-52
2021/12/10 01:58:23;;;;;;;7.13;4.83;;;;;;;2.18;96.33;98997.38;689109;28;1419;-54
2021/12/10 01:58:45;;;;;;;7.30;5.07;;;;;;;2.16;96.47;98996.50;692854;28;1126;-53
2021/12/10 01:59:09;;;;;;;7.43;4.90;;;;;;;2.13;96.55;98996.50;692669;28;1297;-56
2021/12/10 01:59:33;;;;;;;9.15;5.60;;;;;;;2.10;96.78;99001.66;691542;28;1007;-55
2021/12/10 01:59:54;;;;;;;9.68;5.55;;;;;;;2.08;96.68;99001.66;692420;28;1023;-54
2021/12/10 02:00:15;;;;;;;8.33;5.17;;;;;;;2.09;96.48;99010.22;689285;28;1048;-55
2021/12/10 02:00:41;;;;;;;7.50;5.43;;;;;;;2.06;96.26;99005.06;688018;28;3140;-52
2021/12/10 02:01:12;;;;;;;7.70;5.28;;;;;;;2.00;97.39;99006.78;685609;28;4478;-53
2021/12/10 02:01:38;;;;;;;9.05;5.43;;;;;;;1.96;97.25;99007.63;685586;28;1017;-53
2021/12/10 02:02:02;;;;;;;8.35;5.55;;;;;;;1.93;97.81;99010.19;687080;28;1282;-55
2021/12/10 02:02:30;;;;;;;7.82;5.10;;;;;;;1.97;97.49;99011.91;690214;28;1328;-52
2021/12/10 02:02:51;;;;;;;8.77;5.70;;;;;;;2.06;96.61;99007.66;688702;28;1111;-52
2021/12/10 02:03:11;;;;;;;7.82;5.50;;;;;;;2.06;96.21;99015.38;689773;28;1952;-53
2021/12/10 02:03:32;;;;;;;8.13;5.03;;;;;;;2.05;96.57;99014.53;688701;28;3522;-52
2021/12/10 02:03:54;;;;;;;8.17;5.20;;;;;;;2.15;96.67;99015.41;689950;28;1023;-53
2021/12/10 02:04:17;;;;;;;8.32;5.32;;;;;;;2.23;95.79;99013.72;686431;28;4654;-54
2021/12/10 02:04:41;;;;;;;7.50;4.85;;;;;;;2.35;95.35;99008.59;686744;28;1333;-55
2021/12/10 02:05:04;;;;;;;7.93;4.82;;;;;;;2.34;95.62;99004.28;685992;28;1214;-52
2021/12/10 02:05:26;;;;;;;8.10;5.10;;;;;;;2.36;95.00;99004.28;686144;28;1289;-55
2021/12/10 02:05:46;;;;;;;8.50;4.75;;;;;;;2.50;93.92;99007.75;686424;28;1072;-54
2021/12/10 02:06:08;;;;;;;7.80;4.70;;;;;;;2.55;93.48;99005.19;688539;28;3937;-55
2021/12/10 02:06:29;;;;;;;7.47;4.70;;;;;;;2.51;93.80;99008.63;689655;28;3701;-53
2021/12/10 02:06:50;;;;;;;8.50;4.60;;;;;;;2.55;93.82;99012.94;686410;28;1360;-55
2021/12/10 02:07:13;;;;;;;7.53;5.05;;;;;;;2.51;93.95;99009.47;684902;28;4580;-55
2021/12/10 02:07:34;;;;;;;7.45;4.80;;;;;;;2.46;95.54;99012.91;685770;28;933;-51
2021/12/10 02:07:55;;;;;;;7.93;5.00;;;;;;;2.36;95.09;99012.88;685726;28;1049;-54
2021/12/10 02:08:16;;;;;;;8.75;5.10;;;;;;;2.32;95.11;99013.72;686113;28;1381;-51
2021/12/10 02:08:37;;;;;;;8.37;5.00;;;;;;;2.31;95.39;99006.88;687051;28;1210;-52
2021/12/10 02:08:58;;;;;;;8.38;5.15;;;;;;;2.35;95.83;99010.28;689269;28;3232;-52
2021/12/10 02:09:19;;;;;;;7.27;4.90;;;;;;;2.31;95.09;99001.72;689304;28;4669;-54
2021/12/10 02:09:40;;;;;;;6.93;4.82;;;;;;;2.28;95.65;99011.16;688962;28;1261;-52